createdAt,value
2018-02-13T00:02:25.098Z,16.70
2018-02-13T00:04:51.366Z,11.43
2018-02-13T00:07:17.652Z,11.03
2018-02-13T00:09:43.924Z,20.00
2018-02-13T00:12:10.939Z,9.50
2018-02-13T00:14:37.214Z,14.03
2018-02-13T00:17:03.473Z,14.43
2018-02-13T00:19:29.742Z,13.77
2018-02-13T00:21:56.042Z,11.80
2018-02-13T00:24:22.290Z,11.17
2018-02-13T00:26:48.569Z,13.03
2018-02-13T00:29:14.825Z,21.93
2018-02-13T00:31:41.098Z,16.33
2018-02-13T00:34:07.377Z,24.43
2018-02-13T00:36:33.639Z,13.60
2018-02-13T00:39:01.054Z,12.10
2018-02-13T00:41:27.427Z,8.93
2018-02-13T00:43:53.668Z,9.23
2018-02-13T00:46:19.946Z,23.07
2018-02-13T00:48:46.205Z,22.33
2018-02-13T00:51:13.213Z,20.20
2018-02-13T00:53:39.469Z,16.03
2018-02-13T00:56:05.727Z,12.57
2018-02-13T00:58:32.005Z,13.63
2018-02-13T01:00:58.305Z,12.97
2018-02-13T01:03:25.345Z,8.50
2018-02-13T01:05:51.606Z,16.20
2018-02-13T01:08:17.885Z,9.13
2018-02-13T01:10:44.182Z,10.20
2018-02-13T01:13:10.457Z,11.43
2018-02-13T01:15:36.888Z,15.67
2018-02-13T01:18:03.156Z,14.27
2018-02-13T01:20:40.802Z,12.30
2018-02-13T01:23:08.097Z,8.77
2018-02-13T01:25:34.394Z,19.70
2018-02-13T01:28:00.685Z,26.43
2018-02-13T01:30:26.936Z,20.30
2018-02-13T01:32:53.233Z,14.60
2018-02-13T01:35:19.498Z,15.70
2018-02-13T01:37:45.749Z,19.47
2018-02-13T01:40:12.035Z,11.27
2018-02-13T01:42:38.310Z,17.37
2018-02-13T01:45:05.362Z,21.43
2018-02-13T01:47:31.609Z,27.10
2018-02-13T01:49:58.640Z,21.07
2018-02-13T01:52:25.661Z,18.00
2018-02-13T01:54:52.653Z,13.53
2018-02-13T01:57:18.905Z,18.40
2018-02-13T01:59:45.184Z,11.97
2018-02-13T02:02:11.501Z,10.00
2018-02-13T02:04:37.749Z,12.33
2018-02-13T02:07:04.057Z,12.97
2018-02-13T02:09:30.305Z,13.67
2018-02-13T02:11:56.569Z,12.13
2018-02-13T02:14:22.842Z,12.40
2018-02-13T02:16:49.111Z,13.17
2018-02-13T02:19:15.418Z,13.07
2018-02-13T02:21:41.664Z,12.47
2018-02-13T02:24:07.958Z,24.77
2018-02-13T02:26:34.210Z,21.80
2018-02-13T02:29:00.470Z,16.53
2018-02-13T02:31:26.789Z,14.40
2018-02-13T02:33:53.046Z,12.47
2018-02-13T02:36:20.076Z,13.70
2018-02-13T02:38:47.069Z,17.43
2018-02-13T02:41:13.322Z,10.27
2018-02-13T02:43:40.349Z,15.57
2018-02-13T02:46:11.133Z,16.80
2018-02-13T02:48:37.414Z,20.20
2018-02-13T02:51:03.687Z,14.90
2018-02-13T02:53:29.957Z,13.53
2018-02-13T02:55:56.243Z,14.00
2018-02-13T02:58:22.496Z,19.97
2018-02-13T03:00:49.526Z,15.53
2018-02-13T03:03:18.021Z,19.77
2018-02-13T03:05:49.395Z,6.73
2018-02-13T03:08:18.016Z,10.07
2018-02-13T03:10:47.094Z,13.23
2018-02-13T03:13:16.460Z,9.73
2018-02-13T03:15:45.781Z,15.67
2018-02-13T03:18:14.413Z,20.73
2018-02-13T03:20:40.672Z,19.43
2018-02-13T03:23:06.934Z,15.27
2018-02-13T03:25:33.207Z,12.77
2018-02-13T03:27:59.451Z,17.47
2018-02-13T03:30:25.754Z,14.67
2018-02-13T03:32:52.757Z,14.37
2018-02-13T03:35:19.030Z,12.43
2018-02-13T03:37:45.316Z,15.27
2018-02-13T03:40:12.322Z,15.67
2018-02-13T03:42:38.611Z,15.43
2018-02-13T03:45:04.883Z,12.73
2018-02-13T03:47:31.153Z,14.60
2018-02-13T03:49:57.426Z,17.40
2018-02-13T03:52:23.686Z,13.60
2018-02-13T03:54:49.958Z,17.33
2018-02-13T03:57:16.218Z,13.40
2018-02-13T03:59:42.461Z,11.03
2018-02-13T04:02:09.504Z,10.70
2018-02-13T04:04:35.801Z,13.23
2018-02-13T04:07:02.821Z,10.60
2018-02-13T04:09:29.078Z,12.90
2018-02-13T04:11:55.346Z,13.23
2018-02-13T04:14:21.636Z,17.87
2018-02-13T04:16:47.918Z,10.67
2018-02-13T04:19:14.192Z,14.67
2018-02-13T04:21:40.451Z,16.57
2018-02-13T04:24:06.774Z,15.27
2018-02-13T04:26:33.778Z,17.77
2018-02-13T04:29:00.778Z,15.77
2018-02-13T04:31:27.058Z,18.10
2018-02-13T04:33:53.314Z,16.97
2018-02-13T04:36:19.566Z,23.03
2018-02-13T04:38:45.854Z,13.00
2018-02-13T04:41:12.128Z,12.70
2018-02-13T04:43:38.426Z,18.13
2018-02-13T04:46:04.692Z,21.07
2018-02-13T04:48:30.942Z,16.43
2018-02-13T04:50:57.221Z,14.43
2018-02-13T04:53:23.496Z,18.30
2018-02-13T04:55:49.770Z,13.07
2018-02-13T04:58:16.766Z,15.03
2018-02-13T05:00:43.035Z,14.63
2018-02-13T05:03:09.305Z,15.63
2018-02-13T05:05:35.598Z,14.30
2018-02-13T05:08:01.878Z,14.63
2018-02-13T05:10:28.140Z,22.77
2018-02-13T05:12:54.416Z,13.43
2018-02-13T05:15:20.699Z,17.50
2018-02-13T05:17:47.702Z,24.50
2018-02-13T05:20:13.974Z,15.07
2018-02-13T05:22:40.236Z,21.17
2018-02-13T05:25:06.507Z,14.33
2018-02-13T05:27:32.783Z,15.63
2018-02-13T05:29:59.055Z,16.70
2018-02-13T05:32:25.377Z,24.60
2018-02-13T05:34:51.647Z,14.33
2018-02-13T05:37:17.905Z,14.93
2018-02-13T05:39:44.195Z,13.27
2018-02-13T05:42:10.455Z,18.43
2018-02-13T05:44:36.730Z,13.50
2018-02-13T05:47:03.184Z,15.80
2018-02-13T05:49:29.494Z,14.13
2018-02-13T05:51:55.790Z,15.60
2018-02-13T05:54:22.802Z,20.33
2018-02-13T05:56:49.098Z,12.27
2018-02-13T05:59:16.104Z,17.73
2018-02-13T06:01:42.379Z,14.20
2018-02-13T06:04:08.682Z,18.27
2018-02-13T06:06:35.003Z,16.83
2018-02-13T06:09:01.282Z,23.60
2018-02-13T06:11:27.529Z,23.37
2018-02-13T06:13:53.791Z,14.77
2018-02-13T06:16:20.111Z,17.30
2018-02-13T06:18:46.724Z,16.93
2018-02-13T06:21:13.775Z,23.07
2018-02-13T06:23:40.046Z,26.40
2018-02-13T06:26:06.319Z,28.27
2018-02-13T06:28:33.489Z,23.80
2018-02-13T06:31:00.495Z,22.30
2018-02-13T06:33:26.762Z,19.97
2018-02-13T06:35:53.083Z,15.70
2018-02-13T06:38:19.338Z,16.70
2018-02-13T06:40:46.338Z,23.60
2018-02-13T06:43:12.636Z,15.97
2018-02-13T06:45:38.907Z,21.17
2018-02-13T06:48:05.191Z,39.97
2018-02-13T06:50:31.470Z,35.50
2018-02-13T06:52:58.730Z,23.90
2018-02-13T06:55:25.003Z,20.07
2018-02-13T06:57:51.266Z,18.47
2018-02-13T07:00:17.546Z,18.57
2018-02-13T07:02:43.834Z,18.70
2018-02-13T07:05:10.118Z,22.37
2018-02-13T07:07:36.418Z,20.30
2018-02-13T07:10:02.718Z,24.13
2018-02-13T07:12:28.969Z,20.80
2018-02-13T07:14:55.244Z,18.70
2018-02-13T07:17:21.530Z,23.77
2018-02-13T07:19:47.801Z,22.87
2018-02-13T07:22:14.074Z,28.80
2018-02-13T07:24:40.349Z,23.63
2018-02-13T07:27:07.408Z,19.67
2018-02-13T07:29:33.665Z,16.83
2018-02-13T07:31:59.958Z,16.87
2018-02-13T07:34:26.240Z,20.33
2018-02-13T07:36:53.290Z,19.20
2018-02-13T07:39:19.574Z,13.50
2018-02-13T07:41:46.582Z,21.70
2018-02-13T07:44:12.915Z,27.30
2018-02-13T07:46:39.179Z,24.17
2018-02-13T07:49:05.438Z,23.70
2018-02-13T07:51:31.735Z,19.67
2018-02-13T07:53:57.994Z,14.87
2018-02-13T07:56:25.014Z,18.90
2018-02-13T07:58:51.307Z,16.17
2018-02-13T08:01:17.579Z,18.50
2018-02-13T08:03:43.857Z,18.40
2018-02-13T08:06:10.859Z,22.53
2018-02-13T08:08:37.167Z,21.07
2018-02-13T08:11:03.426Z,17.37
2018-02-13T08:13:30.435Z,16.47
2018-02-13T08:15:56.728Z,20.53
2018-02-13T08:18:22.996Z,20.60
2018-02-13T08:20:50.010Z,15.43
2018-02-13T08:23:16.277Z,19.67
2018-02-13T08:25:42.542Z,15.37
2018-02-13T08:28:09.577Z,18.23
2018-02-13T08:30:36.586Z,27.17
2018-02-13T08:33:02.883Z,17.60
2018-02-13T08:35:29.145Z,18.73
2018-02-13T08:37:56.169Z,17.30
2018-02-13T08:40:23.202Z,18.63
2018-02-13T08:42:49.519Z,16.17
2018-02-13T08:45:16.559Z,22.97
2018-02-13T08:47:43.565Z,21.40
2018-02-13T08:50:09.830Z,21.97
2018-02-13T08:52:36.120Z,22.43
2018-02-13T08:55:03.127Z,16.13
2018-02-13T08:57:29.431Z,15.27
2018-02-13T08:59:55.698Z,18.20
2018-02-13T09:02:21.998Z,13.87
2018-02-13T09:04:49.025Z,22.17
2018-02-13T09:07:16.071Z,27.53
2018-02-13T09:09:42.422Z,17.67
2018-02-13T09:12:08.694Z,18.17
2018-02-13T09:14:35.694Z,15.90
2018-02-13T09:17:01.979Z,14.83
2018-02-13T09:19:28.246Z,14.83
2018-02-13T09:21:54.518Z,13.33
2018-02-13T09:24:20.782Z,10.40
2018-02-13T09:26:47.777Z,12.60
2018-02-13T09:29:14.071Z,12.57
2018-02-13T09:31:40.326Z,12.70
2018-02-13T09:34:06.614Z,14.80
2018-02-13T09:36:32.881Z,13.60
2018-02-13T09:38:59.893Z,14.23
2018-02-13T09:41:26.229Z,12.53
2018-02-13T09:43:52.470Z,10.70
2018-02-13T09:46:18.790Z,12.63
2018-02-13T09:48:45.055Z,9.90
2018-02-13T09:51:11.313Z,13.90
2018-02-13T09:53:37.590Z,9.57
2018-02-13T09:56:03.870Z,11.37
2018-02-13T09:58:30.167Z,13.50
2018-02-13T10:00:56.440Z,12.93
2018-02-13T10:03:23.452Z,14.83
2018-02-13T10:05:49.763Z,10.07
2018-02-13T10:08:16.038Z,8.03
2018-02-13T10:10:42.343Z,15.40
2018-02-13T10:13:08.605Z,13.30
2018-02-13T10:15:34.879Z,9.73
2018-02-13T10:18:01.191Z,14.13
2018-02-13T10:20:27.484Z,14.30
2018-02-13T10:22:54.553Z,12.63
2018-02-13T10:25:20.830Z,14.27
2018-02-13T10:27:47.837Z,11.00
2018-02-13T10:30:14.134Z,9.60
2018-02-13T10:32:40.395Z,11.17
2018-02-13T10:35:07.447Z,12.13
2018-02-13T10:37:33.709Z,6.63
2018-02-13T10:39:59.979Z,10.47
2018-02-13T10:42:26.270Z,11.13
2018-02-13T10:44:53.278Z,12.33
2018-02-13T10:47:19.612Z,10.63
2018-02-13T10:49:46.658Z,11.63
2018-02-13T10:52:13.654Z,10.57
2018-02-13T10:54:39.938Z,9.13
2018-02-13T10:57:06.222Z,4.77
2018-02-13T10:59:33.221Z,10.13
2018-02-13T11:02:05.545Z,8.37
2018-02-13T11:04:31.820Z,10.13
2018-02-13T11:06:58.840Z,12.10
2018-02-13T11:09:25.129Z,10.37
2018-02-13T11:11:51.420Z,7.43
2018-02-13T11:14:17.721Z,8.20
2018-02-13T11:16:44.062Z,5.00
2018-02-13T11:19:10.338Z,4.97
2018-02-13T11:21:36.643Z,7.00
2018-02-13T11:24:02.966Z,6.03
2018-02-13T11:26:29.957Z,7.00
2018-02-13T11:28:56.243Z,7.43
2018-02-13T11:31:22.522Z,5.73
2018-02-13T11:33:49.550Z,3.83
2018-02-13T11:36:16.558Z,5.97
2018-02-13T11:38:42.829Z,7.67
2018-02-13T11:41:09.111Z,5.00
2018-02-13T11:43:36.116Z,5.33
2018-02-13T11:46:02.401Z,3.30
2018-02-13T11:48:28.666Z,6.07
2018-02-13T11:50:54.918Z,5.00
2018-02-13T11:53:21.214Z,5.30
2018-02-13T11:55:48.215Z,5.33
2018-02-13T11:58:14.508Z,4.87
2018-02-13T12:00:40.863Z,6.30
2018-02-13T12:03:07.870Z,8.57
2018-02-13T12:05:34.151Z,4.10
2018-02-13T12:08:00.409Z,5.27
2018-02-13T12:10:26.710Z,2.40
2018-02-13T12:12:53.024Z,7.30
2018-02-13T12:15:19.287Z,9.63
2018-02-13T12:17:45.575Z,7.20
2018-02-13T12:20:11.857Z,4.10
2018-02-13T12:22:38.133Z,12.67
2018-02-13T12:25:04.405Z,64.00
2018-02-13T12:27:30.695Z,38.57
2018-02-13T12:29:57.015Z,12.77
2018-02-13T12:32:23.287Z,3.57
2018-02-13T12:34:50.415Z,6.27
2018-02-13T12:37:17.446Z,15.97
2018-02-13T12:39:44.479Z,4.03
2018-02-13T12:42:11.518Z,4.00
2018-02-13T12:44:38.523Z,20.80
2018-02-13T12:47:04.818Z,8.43
2018-02-13T12:49:31.090Z,7.97
2018-02-13T12:51:57.370Z,11.00
2018-02-13T12:54:23.694Z,7.53
2018-02-13T12:56:49.982Z,5.03
2018-02-13T12:59:16.300Z,4.73
2018-02-13T13:01:42.610Z,3.63
2018-02-13T13:04:11.762Z,7.60
2018-02-13T13:06:38.053Z,7.00
2018-02-13T13:09:05.058Z,4.10
2018-02-13T13:11:31.353Z,5.70
2018-02-13T13:13:57.674Z,2.50
2018-02-13T13:16:23.970Z,8.23
2018-02-13T13:18:50.288Z,4.27
2018-02-13T13:21:16.551Z,3.70
2018-02-13T13:23:42.843Z,3.50
2018-02-13T13:26:09.157Z,4.73
2018-02-13T13:28:35.422Z,5.90
2018-02-13T13:31:01.735Z,8.40
2018-02-13T13:33:28.027Z,1.73
2018-02-13T13:35:54.569Z,5.13
2018-02-13T13:38:21.600Z,4.53
2018-02-13T13:40:48.604Z,4.33
2018-02-13T13:43:14.890Z,3.50
2018-02-13T13:45:41.182Z,6.40
2018-02-13T13:48:07.497Z,3.40
2018-02-13T13:50:33.790Z,4.17
2018-02-13T13:53:00.071Z,8.33
2018-02-13T13:55:26.361Z,3.00
2018-02-13T13:57:52.645Z,4.00
2018-02-13T14:00:19.162Z,2.17
2018-02-13T14:02:46.166Z,5.57
2018-02-13T14:05:12.516Z,1.47
2018-02-13T14:07:38.831Z,2.20
2018-02-13T14:10:05.120Z,1.90
2018-02-13T14:12:31.431Z,4.03
2018-02-13T14:14:57.754Z,4.70
2018-02-13T14:17:34.017Z,3.00
2018-02-13T14:20:00.308Z,2.97
2018-02-13T14:22:27.314Z,2.77
2018-02-13T14:24:53.590Z,5.00
2018-02-13T14:27:19.891Z,2.13
2018-02-13T14:29:46.182Z,3.43
2018-02-13T14:32:12.567Z,3.13
2018-02-13T14:34:38.829Z,3.27
2018-02-13T14:37:05.898Z,4.60
2018-02-13T14:39:32.163Z,5.60
2018-02-13T14:41:58.493Z,2.43
2018-02-13T14:44:25.483Z,2.57
2018-02-13T14:46:51.763Z,5.00
2018-02-13T14:49:18.051Z,2.83
2018-02-13T14:51:44.313Z,3.00
2018-02-13T14:54:10.594Z,5.43
2018-02-13T14:56:36.941Z,4.40
2018-02-13T14:59:03.222Z,4.50
2018-02-13T15:01:29.516Z,3.27
2018-02-13T15:03:56.530Z,1.27
2018-02-13T15:06:23.591Z,6.40
2018-02-13T15:08:49.863Z,8.13
2018-02-13T15:11:16.139Z,4.20
2018-02-13T15:13:42.449Z,7.23
2018-02-13T15:16:08.770Z,3.90
2018-02-13T15:18:37.045Z,3.80
2018-02-13T15:21:03.315Z,4.53
2018-02-13T15:23:30.327Z,2.70
2018-02-13T15:25:56.618Z,5.83
2018-02-13T15:28:22.876Z,1.97
2018-02-13T15:30:49.927Z,2.37
2018-02-13T15:33:16.226Z,1.33
2018-02-13T15:35:42.482Z,3.07
2018-02-13T15:38:09.619Z,7.87
2018-02-13T15:40:35.882Z,3.33
2018-02-13T15:43:02.882Z,2.33
2018-02-13T15:45:29.191Z,2.73
2018-02-13T15:47:55.475Z,8.43
2018-02-13T15:50:21.730Z,2.93
2018-02-13T15:52:48.007Z,8.60
2018-02-13T15:55:14.271Z,2.07
2018-02-13T15:57:40.559Z,6.37
2018-02-13T16:00:06.849Z,4.43
2018-02-13T16:02:33.114Z,10.27
2018-02-13T16:04:59.410Z,8.13
2018-02-13T16:07:25.714Z,6.90
2018-02-13T16:09:52.018Z,4.27
2018-02-13T16:12:18.353Z,7.80
2018-02-13T16:14:44.615Z,2.93
2018-02-13T16:17:11.650Z,7.67
2018-02-13T16:19:37.926Z,6.50
2018-02-13T16:22:04.201Z,6.97
2018-02-13T16:24:30.454Z,11.67
2018-02-13T16:26:56.730Z,12.83
2018-02-13T16:29:23.035Z,6.33
2018-02-13T16:31:49.302Z,6.10
2018-02-13T16:34:15.604Z,8.43
2018-02-13T16:36:41.943Z,5.30
2018-02-13T16:39:08.214Z,7.23
2018-02-13T16:41:34.501Z,9.47
2018-02-13T16:44:00.767Z,9.80
2018-02-13T16:46:27.158Z,5.40
2018-02-13T16:48:53.444Z,8.20
2018-02-13T16:51:20.481Z,10.13
2018-02-13T16:53:47.525Z,10.37
2018-02-13T16:56:13.790Z,8.47
2018-02-13T16:58:40.071Z,5.40
2018-02-13T17:01:06.346Z,13.07
2018-02-13T17:03:33.363Z,13.50
2018-02-13T17:05:59.722Z,11.77
2018-02-13T17:08:26.002Z,10.20
2018-02-13T17:10:52.282Z,7.17
2018-02-13T17:13:18.559Z,8.03
2018-02-13T17:15:44.823Z,2.90
2018-02-13T17:18:11.147Z,4.27
2018-02-13T17:20:37.415Z,7.03
2018-02-13T17:23:03.709Z,7.67
2018-02-13T17:25:30.698Z,13.17
2018-02-13T17:27:56.966Z,11.80
2018-02-13T17:30:23.251Z,8.67
2018-02-13T17:32:49.532Z,4.10
2018-02-13T17:35:15.814Z,5.13
2018-02-13T17:37:42.066Z,6.67
2018-02-13T17:40:08.354Z,4.67
2018-02-13T17:42:34.630Z,5.57
2018-02-13T17:45:00.887Z,4.77
2018-02-13T17:47:27.171Z,7.83
2018-02-13T17:49:54.167Z,6.57
2018-02-13T17:52:20.429Z,8.47
2018-02-13T17:54:46.715Z,9.80
2018-02-13T17:57:13.006Z,10.67
2018-02-13T17:59:39.292Z,10.10
2018-02-13T18:02:05.563Z,9.13
2018-02-13T18:04:32.585Z,5.90
2018-02-13T18:06:58.940Z,8.37
2018-02-13T18:09:25.167Z,9.10
2018-02-13T18:11:51.458Z,10.57
2018-02-13T18:14:18.474Z,7.60
2018-02-13T18:16:44.725Z,6.33
2018-02-13T18:19:11.034Z,5.73
2018-02-13T18:21:37.307Z,9.03
2018-02-13T18:24:03.588Z,8.90
2018-02-13T18:26:29.853Z,7.77
2018-02-13T18:28:56.102Z,10.47
2018-02-13T18:31:22.382Z,3.87
2018-02-13T18:33:48.646Z,4.67
2018-02-13T18:36:14.942Z,4.23
2018-02-13T18:38:41.199Z,8.10
2018-02-13T18:41:07.467Z,4.07
2018-02-13T18:43:33.759Z,2.33
2018-02-13T18:46:00.035Z,6.30
2018-02-13T18:48:26.334Z,16.87
2018-02-13T18:50:52.643Z,9.63
2018-02-13T18:53:18.901Z,8.30
2018-02-13T18:55:45.206Z,6.83
2018-02-13T18:58:11.487Z,7.87
2018-02-13T19:00:37.836Z,6.67
2018-02-13T19:03:04.084Z,4.93
2018-02-13T19:05:31.091Z,13.47
2018-02-13T19:07:57.444Z,38.63
2018-02-13T19:10:23.735Z,55.57
2018-02-13T19:12:50.016Z,40.63
2018-02-13T19:15:16.319Z,31.67
2018-02-13T19:17:42.570Z,32.00
2018-02-13T19:20:08.890Z,33.73
2018-02-13T19:22:35.198Z,26.97
2018-02-13T19:25:01.500Z,14.53
2018-02-13T19:27:27.753Z,10.17
2018-02-13T19:29:54.757Z,12.53
2018-02-13T19:32:21.102Z,10.93
2018-02-13T19:34:48.100Z,7.40
2018-02-13T19:37:14.382Z,6.83
2018-02-13T19:39:40.679Z,6.60
2018-02-13T19:42:06.974Z,6.47
2018-02-13T19:44:33.978Z,6.37
2018-02-13T19:47:00.329Z,10.47
2018-02-13T19:49:27.332Z,9.83
2018-02-13T19:51:53.635Z,7.80
2018-02-13T19:54:19.960Z,4.77
2018-02-13T19:56:46.233Z,7.87
2018-02-13T19:59:12.522Z,8.70
2018-02-13T20:01:39.546Z,8.13
2018-02-13T20:04:06.564Z,5.97
2018-02-13T20:06:39.150Z,12.50
2018-02-13T20:09:06.215Z,8.00
2018-02-13T20:11:33.279Z,8.00
2018-02-13T20:13:59.604Z,7.67
2018-02-13T20:16:25.895Z,5.80
2018-02-13T20:18:52.426Z,6.83
2018-02-13T20:21:18.739Z,8.03
2018-02-13T20:23:45.026Z,7.13
2018-02-13T20:26:11.299Z,5.57
2018-02-13T20:28:37.563Z,13.00
2018-02-13T20:31:03.876Z,9.67
2018-02-13T20:33:30.129Z,12.53
2018-02-13T20:35:56.436Z,9.63
2018-02-13T20:38:22.892Z,5.87
2018-02-13T20:40:51.722Z,9.77
2018-02-13T20:43:19.074Z,7.00
2018-02-13T20:45:46.433Z,7.37
2018-02-13T20:48:13.611Z,8.93
2018-02-13T20:50:39.962Z,8.57
2018-02-13T20:53:07.171Z,9.00
2018-02-13T20:55:33.556Z,6.37
2018-02-13T20:57:59.846Z,5.60
2018-02-13T21:00:26.158Z,7.73
2018-02-13T21:02:52.496Z,6.67
2018-02-13T21:05:18.808Z,5.10
2018-02-13T21:07:45.098Z,7.27
2018-02-13T21:10:12.110Z,5.53
2018-02-13T21:12:38.449Z,6.03
2018-02-13T21:15:05.530Z,4.97
2018-02-13T21:17:31.814Z,7.10
2018-02-13T21:19:58.094Z,4.73
2018-02-13T21:22:24.428Z,9.47
2018-02-13T21:24:51.442Z,6.33
2018-02-13T21:27:17.702Z,6.80
2018-02-13T21:29:43.996Z,6.03
2018-02-13T21:32:10.379Z,8.30
2018-02-13T21:34:36.708Z,6.87
2018-02-13T21:37:03.094Z,6.40
2018-02-13T21:39:29.393Z,8.40
2018-02-13T21:41:55.659Z,6.20
2018-02-13T21:44:21.948Z,6.50
2018-02-13T21:46:48.226Z,4.13
2018-02-13T21:49:14.519Z,8.80
2018-02-13T21:51:40.816Z,6.10
2018-02-13T21:54:07.854Z,6.03
2018-02-13T21:56:34.956Z,4.47
2018-02-13T21:59:01.262Z,11.80
2018-02-13T22:01:27.588Z,7.60
2018-02-13T22:03:53.902Z,19.07
2018-02-13T22:06:20.182Z,13.67
2018-02-13T22:08:46.470Z,12.30
2018-02-13T22:11:13.478Z,7.67
2018-02-13T22:13:39.774Z,7.53
2018-02-13T22:16:06.064Z,9.80
2018-02-13T22:18:33.414Z,8.37
2018-02-13T22:20:59.698Z,11.50
2018-02-13T22:23:25.986Z,8.83
2018-02-13T22:25:52.278Z,7.37
2018-02-13T22:28:18.539Z,6.33
2018-02-13T22:30:45.535Z,13.03
2018-02-13T22:33:11.813Z,5.77
2018-02-13T22:35:38.066Z,7.40
2018-02-13T22:38:04.358Z,9.33
2018-02-13T22:40:30.627Z,6.20
2018-02-13T22:42:57.622Z,6.20
2018-02-13T22:45:23.939Z,6.93
2018-02-13T22:47:50.219Z,9.80
2018-02-13T22:50:16.512Z,5.97
2018-02-13T22:52:43.531Z,7.60
2018-02-13T22:55:10.538Z,6.73
2018-02-13T22:57:36.842Z,10.40
2018-02-13T23:00:03.186Z,5.87
2018-02-13T23:02:29.482Z,6.83
2018-02-13T23:04:55.759Z,5.70
2018-02-13T23:07:22.016Z,9.13
2018-02-13T23:09:48.501Z,5.83
2018-02-13T23:12:14.823Z,12.37
2018-02-13T23:14:41.285Z,7.50
2018-02-13T23:17:07.965Z,5.67
2018-02-13T23:19:34.266Z,11.47
2018-02-13T23:22:00.551Z,10.93
2018-02-13T23:24:27.612Z,10.37
2018-02-13T23:26:54.033Z,11.67
2018-02-13T23:29:20.305Z,11.70
2018-02-13T23:31:46.570Z,9.37
2018-02-13T23:34:12.852Z,10.63
2018-02-13T23:36:39.850Z,9.37
2018-02-13T23:39:06.145Z,8.57
2018-02-13T23:41:32.402Z,8.67
2018-02-13T23:43:58.659Z,8.97
2018-02-13T23:46:24.954Z,8.60
2018-02-13T23:48:51.218Z,9.13
2018-02-13T23:51:17.517Z,8.90
2018-02-13T23:53:43.799Z,8.87
2018-02-13T23:56:12.673Z,10.53
2018-02-13T23:58:38.963Z,12.47
